Tiempo atmosférico en la estación meteorológica de Cabo Vilan, A Coruña (50 m.)



Fecha
DESCASC
Temp. máxima en grados centígrados (hora)
DESCASC
Temp. mínima en grados centígrados (hora)
DESCASC
Temp. media en grados centígrados
DESCASC
Racha de viento máxima en m/sg (hora)
DESCASC
Velocidad máxima media en intervalos de 10 minutos(hora)
DESCASC
Precipitaciones diarias en mm
DESCASC
Precipitaciones de 00:00 a 06:00 en mm
DESCASC
Precipitaciones de 06:00 a 12:00 en mm
DESCASC
Precipitaciones de 12:00 a 18:00 en mm
DESCASC
Precipitaciones de 18:00 a 24:00 en mm
DESCASC
11-08-2020 19.3 (15:00) 16.5 (05:10) 17.9 12.78 (14:50) 10.83 (05:00) 0 0 0 0 0
10-08-2020 20.5 (14:10) 17.2 (07:40) 18.9 12.5 (23:30) 10.28 (23:40) 0 0 0 0 0
09-08-2020 21.4 (15:20) 16.3 (08:10) 18.8 11.11 (03:50) 8.33 (02:50) 0 0 0 0 0
08-08-2020 21.2 (15:40) 17.5 (07:00) 19.4 14.72 (15:40) 11.67 (15:40) 0 0 0 0 0
07-08-2020 21.7 (18:00) 17.2 (00:00) 19.5 11.94 (23:59) 8.89 (23:59) 0.1 0 0.1 0 0
06-08-2020 21.5 (15:30) 16.7 (00:00) 19.1 10.83 (09:50) 8.61 (09:40) 0 0 0 0 0
05-08-2020 21.3 (16:10) 16.3 (00:00) 18.8 7.78 (22:10) 6.39 (20:20) 0 0 0 0 0
04-08-2020 20.3 (14:30) 16.1 (03:10) 18.2 8.06 (19:20) 7.22 (19:20) 0.3 0.3 0 0 0
03-08-2020 20.4 (15:40) 15.1 (04:20) 17.8 6.94 (23:59) 5.83 (23:59) 0.1 0 0 0 0.1
02-08-2020 19.9 (16:30) 15.5 (00:00) 17.7 9.17 (01:10) 7.78 (00:30) 0 0 0 0 0
01-08-2020 20.7 (15:30) 15.6 (00:00) 18.2 8.89 (20:10) 7.5 (20:10) 0 0 0 0 0
31-07-2020 20.4 (15:10) 15.4 (02:10) 17.9 11.39 (12:50) 8.61 (12:50) 0 0 0 0 0
30-07-2020 23.3 (14:40) 15 (00:00) 19.1 12.78 (16:20) 9.72 (16:20) 0 0 0 0 0
29-07-2020 18.9 (14:40) 15.6 (00:00) 17.3 19.17 (02:00) 15 (13:30) 0 0 0 0 0
28-07-2020 18.8 (15:20) 16 (00:00) 17.4 20 (21:50) 14.17 (19:40) 0.1 0 0 0 0.1
27-07-2020 22.2 (13:10) 16.3 (00:00) 19.3 7.78 (15:30) 6.11 (16:20) 0.2 0 0 0 0.2
26-07-2020 20.3 (15:40) 16.5 (00:00) 18.4 6.39 (17:40) 5.83 (17:50) 0 0 0 0 0
25-07-2020 22.8 (16:40) 15.5 (00:00) 19.1 7.78 (04:50) 5.56 (17:30) 0 0 0 0 0
24-07-2020 20.3 (16:10) 15 (00:00) 17.6 7.22 (00:30) 5.83 (17:20) 0 0 0 0 0
23-07-2020 19.5 (11:50) 15.1 (00:00) 17.3 12.22 (02:30) 9.17 (05:40) 0 0 0 0 0
22-07-2020 19.2 (17:40) 15.7 (00:00) 17.5 17.5 (05:00) 12.5 (16:20) 0 0 0 0 0
21-07-2020 18.8 (15:30) 16 (00:00) 17.4 24.17 (17:10) 18.61 (17:20) 0 0 0 0 0
20-07-2020 18.2 (14:30) 15.6 (00:00) 16.9 20 (16:40) 15.56 (22:10) 0 0 0 0 0
19-07-2020 17.8 (15:10) 15.2 (00:00) 16.5 15 (15:30) 11.94 (15:30) 0 0 0 0 0
18-07-2020 20.7 (14:00) 14.6 (00:00) 17.7 12.22 (22:40) 10 (22:40) 0 0 0 0 0
17-07-2020 18.8 (17:00) 15.3 (00:00) 17 23.06 (04:40) 18.33 (04:30) 0 0 0 0 0
16-07-2020 18.2 (12:20) 15.2 (00:00) 16.7 24.17 (20:40) 19.17 (20:20) 0 0 0 0 0
15-07-2020 17.4 (14:30) 14.6 (00:00) 16 21.11 (19:30) 17.22 (18:50) 0.5 0.5 0 0 0
14-07-2020 17.8 (15:10) 14.3 (00:00) 16 16.39 (23:59) 14.17 (23:59) 0.1 0 0 0 0.1

Gráficas

Temp. máximas Temp. mínimas Temp. medias Precipitaciones Rachas de viento máximas Velocidades máximas media en intervalos de 10 minutos

Datos horarios

Fecha y hora oficial Temperatura (ºC) Velocidad del viento (km/h) Dirección del viento Racha (km/h) Dirección de racha Precipitación (mm) Presión (hPa) Tendencia (hPa) Humedad (%)
2020-08-12 23:00:00 16.6 11 Sur 15 Sur 0 -- -- 78
2020-08-12 22:00:00 17 8 Sur 9 Sur 0 -- -- 74
2020-08-12 21:00:00 18.5 3 Noroeste 7 Nordeste 0 -- -- 72
2020-08-12 20:00:00 19.1 0 Calma 10 Norte 0 -- -- 72
2020-08-12 19:00:00 18.7 8 Noroeste 21 Noroeste 0 -- -- 69
2020-08-12 18:00:00 19.4 11 Noroeste 20 Norte 0 -- -- 66
2020-08-12 17:00:00 20 7 Norte 12 Norte 0 -- -- 68
2020-08-12 16:00:00 19.6 10 Nordeste 19 Norte 0 -- -- 70
2020-08-12 15:00:00 19.8 13 Norte 18 Nordeste 0 -- -- 73
2020-08-12 14:00:00 18.3 13 Norte 24 Norte 0 -- -- 78
2020-08-12 13:00:00 17.5 15 Nordeste 24 Norte 0 -- -- 82
2020-08-12 12:00:00 17 19 Norte 31 Norte 0 -- -- 84
2020-08-12 11:00:00 17 14 Nordeste 19 Norte 0 -- -- 84
2020-08-12 10:00:00 16.8 13 Nordeste 22 Norte 0 -- -- 84
2020-08-12 09:00:00 16.3 14 Norte 23 Norte 0 -- -- 84
2020-08-12 08:00:00 16.5 22 Norte 31 Nordeste 3.8 -- -- 84
2020-08-12 07:00:00 15.8 21 Nordeste 33 Norte 1.5 -- -- 84
2020-08-12 06:00:00 16.2 23 Norte 32 Norte 4.2 -- -- 84
2020-08-12 05:00:00 16.4 23 Nordeste 34 Nordeste 2.4 -- -- 84
2020-08-12 04:00:00 16.1 23 Nordeste 34 Norte 0.1 -- -- 84
2020-08-12 03:00:00 16.4 25 Nordeste 34 Nordeste 0.5 -- -- 84
2020-08-12 02:00:00 17.1 29 Nordeste 36 Nordeste 0.1 -- -- 85
2020-08-12 01:00:00 17.2 28 Nordeste 37 Nordeste 0 -- -- 84
2020-08-12 00:00:00 17.1 30 Nordeste 37 Nordeste 0 -- -- 84
2020-08-11 23:00:00 17 27 Nordeste 37 Nordeste 0 -- -- 84
2020-08-11 22:00:00 17.8 30 Nordeste 36 Nordeste 0 -- -- 84
2020-08-11 21:00:00 17.3 27 Nordeste 36 Nordeste 0 -- -- 84
2020-08-11 20:00:00 17.4 24 Nordeste 36 Nordeste 0 -- -- 84
2020-08-11 19:00:00 17.1 26 Nordeste 39 Nordeste 0 -- -- 81
2020-08-11 18:00:00 18.4 32 Nordeste 39 Nordeste 0 -- -- 80
2020-08-11 17:00:00 18.1 27 Nordeste 39 Nordeste 0 -- -- 80
2020-08-11 16:00:00 18.2 29 Nordeste 39 Nordeste 0 -- -- 80
2020-08-11 15:00:00 19.2 37 Nordeste 46 Nordeste 0 -- -- 80
2020-08-11 14:00:00 17.6 36 Nordeste 41 Nordeste 0 -- -- 83
2020-08-11 13:00:00 17.1 33 Nordeste 40 Nordeste 0 -- -- 84
2020-08-11 12:00:00 17.1 32 Nordeste 44 Nordeste 0 -- -- 83
2020-08-11 11:00:00 17 30 Nordeste 42 Nordeste 0 -- -- 83
2020-08-11 10:00:00 17.5 35 Nordeste 43 Nordeste 0 -- -- 83
2020-08-11 09:00:00 17.7 31 Nordeste 41 Nordeste 0 -- -- 83
2020-08-11 08:00:00 17.4 25 Nordeste 45 Nordeste 0 -- -- 83
2020-08-11 07:00:00 17.1 27 Nordeste 44 Nordeste 0 -- -- 84
2020-08-11 06:00:00 17.1 30 Nordeste 43 Nordeste 0 -- -- 84
2020-08-11 05:00:00 16.9 39 Nordeste 45 Nordeste 0 -- -- 83
2020-08-11 04:00:00 17.4 33 Nordeste 40 Nordeste 0 -- -- 82
2020-08-11 03:00:00 17.4 30 Nordeste 38 Nordeste 0 -- -- 83
2020-08-11 02:00:00 17.1 26 Nordeste 39 Nordeste 0 -- -- 83
2020-08-11 01:00:00 17.2 30 Nordeste 43 Nordeste 0 -- -- 82
2020-08-11 00:00:00 17.5 32 Nordeste 45 Nordeste 0 -- -- 81
2020-08-10 23:00:00 17.7 32 Nordeste 40 Nordeste 0 -- -- 81
2020-08-10 22:00:00 18 31 Nordeste 40 Nordeste 0 -- -- 80
2020-08-10 21:00:00 18 33 Nordeste 43 Nordeste 0 -- -- 80
2020-08-10 20:00:00 18 33 Nordeste 39 Nordeste 0 -- -- 79
2020-08-10 19:00:00 18.3 34 Nordeste 41 Nordeste 0 -- -- 75
2020-08-10 18:00:00 18.6 28 Nordeste 33 Nordeste 0 -- -- 75
2020-08-10 17:00:00 18.2 29 Nordeste 33 Nordeste 0 -- -- 75
2020-08-10 16:00:00 18.5 25 Nordeste 32 Norte 0 -- -- 73
2020-08-10 15:00:00 18.9 24 Nordeste 33 Nordeste 0 -- -- 71
2020-08-10 14:00:00 20.3 26 Nordeste 32 Nordeste 0 -- -- 71
2020-08-10 13:00:00 19.3 25 Nordeste 32 Nordeste 0 -- -- 73
2020-08-10 12:00:00 19.1 23 Nordeste 32 Nordeste 0 -- -- 74
2020-08-10 11:00:00 18.3 23 Nordeste 27 Nordeste 0 -- -- 80
2020-08-10 10:00:00 18 20 Nordeste 26 Nordeste 0 -- -- 80
2020-08-10 09:00:00 17.5 20 Nordeste 26 Norte 0 -- -- 80
2020-08-10 08:00:00 17.3 19 Nordeste 32 Nordeste 0 -- -- 81
2020-08-10 07:00:00 17.5 19 Nordeste 25 Nordeste 0 -- -- 81
2020-08-10 06:00:00 17.7 23 Nordeste 28 Nordeste 0 -- -- 82
2020-08-10 05:00:00 17.6 19 Nordeste 27 Nordeste 0 -- -- 82
2020-08-10 04:00:00 17.7 21 Nordeste 28 Norte 0 -- -- 82
2020-08-10 03:00:00 17.4 16 Nordeste 30 Nordeste 0 -- -- 81
2020-08-10 02:00:00 17.7 19 Nordeste 26 Nordeste 0 -- -- 80
2020-08-10 01:00:00 18 19 Nordeste 27 Nordeste 0 -- -- 79
2020-08-10 00:00:00 17.8 18 Nordeste 22 Nordeste 0 -- -- 76
2020-08-09 23:00:00 17.9 20 Nordeste 26 Nordeste 0 -- -- 76
2020-08-09 22:00:00 18.3 22 Nordeste 28 Nordeste 0 -- -- 76
2020-08-09 21:00:00 18.2 22 Nordeste 28 Nordeste 0 -- -- 74
2020-08-09 20:00:00 18.7 17 Nordeste 23 Norte 0 -- -- 71
2020-08-09 19:00:00 19.5 14 Norte 22 Norte 0 -- -- 68
2020-08-09 18:00:00 20.5 15 Norte 22 Norte 0 -- -- 66
2020-08-09 17:00:00 21.2 17 Norte 23 Norte 0 -- -- 66
2020-08-09 16:00:00 20.9 16 Norte 24 Norte 0 -- -- 68
2020-08-09 15:00:00 21.3 15 Norte 21 Norte 0 -- -- 71
2020-08-09 14:00:00 20.3 14 Norte 20 Nordeste 0 -- -- 73
2020-08-09 13:00:00 20.3 13 Nordeste 17 Nordeste 0 -- -- 76
2020-08-09 12:00:00 19 10 Nordeste 17 Norte 0 -- -- 80
2020-08-09 11:00:00 18.5 10 Nordeste 15 Nordeste 0 -- -- 81
2020-08-09 10:00:00 17.9 11 Nordeste 19 Nordeste 0 -- -- 81
2020-08-09 09:00:00 17.4 15 Nordeste 21 Nordeste 0 -- -- 82
2020-08-09 08:00:00 16.6 12 Nordeste 30 Nordeste 0 -- -- 82
2020-08-09 07:00:00 16.9 17 Nordeste 27 Nordeste 0 -- -- 82
2020-08-09 06:00:00 16.9 18 Nordeste 37 Nordeste 0 -- -- 81
2020-08-09 05:00:00 18.5 23 Nordeste 39 Nordeste 0 -- -- 81
2020-08-09 04:00:00 18.4 27 Nordeste 40 Nordeste 0 -- -- 81
2020-08-09 03:00:00 18.2 29 Nordeste 39 Nordeste 0 -- -- 81
2020-08-09 02:00:00 17.5 22 Nordeste 32 Nordeste 0 -- -- 81
2020-08-09 01:00:00 17.9 28 Nordeste 38 Nordeste 0 -- -- 81
2020-08-09 00:00:00 17.9 28 Nordeste 38 Nordeste 0 -- -- 80
2020-08-08 23:00:00 18.3 30 Nordeste 38 Nordeste 0 -- -- 79
2020-08-08 22:00:00 18.5 29 Nordeste 34 Nordeste 0 -- -- 78
2020-08-08 21:00:00 18.5 28 Nordeste 33 Nordeste 0 -- -- 76
2020-08-08 20:00:00 19.1 28 Nordeste 41 Nordeste 0 -- -- 72
2020-08-08 19:00:00 19.7 30 Nordeste 39 Nordeste 0 -- -- 69
2020-08-08 18:00:00 20.2 31 Nordeste 43 Nordeste 0 -- -- 66
2020-08-08 17:00:00 20.1 33 Nordeste 50 Nordeste 0 -- -- 66
2020-08-08 16:00:00 20.6 37 Nordeste 53 Nordeste 0 -- -- 65
2020-08-08 15:00:00 20.9 33 Nordeste 42 Nordeste 0 -- -- 67
2020-08-08 14:00:00 20.4 35 Nordeste 43 Nordeste 0 -- -- 69
2020-08-08 13:00:00 19.6 31 Nordeste 39 Nordeste 0 -- -- 73
2020-08-08 12:00:00 19.1 31 Nordeste 39 Nordeste 0 -- -- 76
2020-08-08 11:00:00 18.8 32 Nordeste 40 Nordeste 0 -- -- 78
2020-08-08 10:00:00 17.6 26 Nordeste 47 Nordeste 0 -- -- 79
2020-08-08 09:00:00 18.6 35 Nordeste 45 Nordeste 0 -- -- 80
2020-08-08 08:00:00 18.4 28 Nordeste 40 Nordeste 0 -- -- 80
2020-08-08 07:00:00 17.6 28 Nordeste 39 Nordeste 0 -- -- 81
2020-08-08 06:00:00 18.5 32 Nordeste 44 Nordeste 0 -- -- 80
2020-08-08 05:00:00 18.6 31 Nordeste 42 Nordeste 0 -- -- 80
2020-08-08 04:00:00 18.5 35 Nordeste 45 Nordeste 0 -- -- 80
2020-08-08 03:00:00 18.5 32 Nordeste 42 Nordeste 0 -- -- 78
2020-08-08 02:00:00 18.9 33 Nordeste 42 Nordeste 0 -- -- 77
2020-08-08 01:00:00 19.1 35 Nordeste 45 Nordeste 0 -- -- 76
2020-08-08 00:00:00 19.1 32 Nordeste 43 Nordeste 0 -- -- 77
2020-08-07 23:00:00 19.2 30 Nordeste 38 Nordeste 0 -- -- 77
2020-08-07 22:00:00 18.5 29 Nordeste 36 Nordeste 0 -- -- 78
2020-08-07 21:00:00 18.8 29 Nordeste 36 Nordeste 0 -- -- 77
2020-08-07 20:00:00 19.9 27 Nordeste 31 Nordeste 0 -- -- 73
2020-08-07 19:00:00 20.7 26 Nordeste 30 Nordeste 0 -- -- 70
2020-08-07 18:00:00 21.7 24 Nordeste 26 Nordeste 0 -- -- 72
2020-08-07 17:00:00 20.4 19 Nordeste 24 Norte 0 -- -- 72
2020-08-07 16:00:00 20.8 17 Norte 24 Nordeste 0 -- -- 72
2020-08-07 15:00:00 20.9 14 Norte 21 Nordeste 0 -- -- 73
2020-08-07 14:00:00 20.3 16 Nordeste 22 Nordeste 0 -- -- 78
2020-08-07 13:00:00 20 19 Nordeste 27 Nordeste 0 -- -- 83
2020-08-07 12:00:00 19 22 Nordeste 26 Nordeste 0.1 -- -- 83
2020-08-07 11:00:00 18 19 Nordeste 23 Nordeste 0 -- -- 84
2020-08-07 10:00:00 18.7 16 Nordeste 27 Nordeste 0 -- -- 83
2020-08-07 09:00:00 17.3 13 Nordeste 19 Nordeste 0 -- -- 83
2020-08-07 08:00:00 17.5 17 Nordeste 28 Nordeste 0 -- -- 84
2020-08-07 07:00:00 17.5 12 Norte 21 Nordeste 0 -- -- 84
2020-08-07 06:00:00 18.2 14 Nordeste 18 Nordeste 0 -- -- 84
2020-08-07 05:00:00 18.5 14 Nordeste 19 Nordeste 0 -- -- 83
2020-08-07 04:00:00 18.4 14 Nordeste 22 Nordeste 0 -- -- 83
2020-08-07 03:00:00 18.9 16 Nordeste 22 Nordeste 0 -- -- 83
2020-08-07 02:00:00 18.5 16 Nordeste 24 Nordeste 0 -- -- 83
2020-08-07 01:00:00 19 14 Nordeste 22 Nordeste 0 -- -- 83
2020-08-07 00:00:00 18.9 17 Nordeste 26 Nordeste 0 -- -- 82
2020-08-06 23:00:00 18.7 22 Nordeste 30 Nordeste 0 -- -- 82
2020-08-06 22:00:00 18.5 17 Nordeste 28 Nordeste 0 -- -- 81
2020-08-06 21:00:00 18.5 16 Norte 22 Norte 0 -- -- 80
2020-08-06 20:00:00 18.6 12 Nordeste 27 Nordeste 0 -- -- 77
2020-08-06 19:00:00 19.5 18 Norte 27 Norte 0 -- -- 76
2020-08-06 18:00:00 19.7 14 Norte 24 Norte 0 -- -- 72
2020-08-06 17:00:00 20.4 15 Norte 24 Nordeste 0 -- -- 68
2020-08-06 16:00:00 21.1 19 Nordeste 25 Nordeste 0 -- -- 67
2020-08-06 15:00:00 21.3 22 Nordeste 27 Nordeste 0 -- -- 68
2020-08-06 14:00:00 20.3 19 Nordeste 26 Norte 0 -- -- 71
2020-08-06 13:00:00 20.2 18 Nordeste 32 Nordeste 0 -- -- 71
2020-08-06 12:00:00 20.2 27 Nordeste 33 Nordeste 0 -- -- 74
2020-08-06 11:00:00 19.2 25 Nordeste 36 Nordeste 0 -- -- 78
2020-08-06 10:00:00 18.2 28 Nordeste 39 Nordeste 0 -- -- 82
2020-08-06 09:00:00 17.7 27 Nordeste 32 Nordeste 0 -- -- 84
2020-08-06 08:00:00 17.7 22 Nordeste 28 Nordeste 0 -- -- 84
2020-08-06 07:00:00 17.9 22 Nordeste 27 Nordeste 0 -- -- 83
2020-08-06 06:00:00 17.8 21 Nordeste 27 Nordeste 0 -- -- 83
2020-08-06 05:00:00 17.3 21 Nordeste 26 Nordeste 0 -- -- 82
2020-08-06 04:00:00 16.7 17 Nordeste 31 Nordeste 0 -- -- 80
2020-08-06 03:00:00 18.4 18 Nordeste 27 Nordeste 0 -- -- 78
2020-08-06 02:00:00 18 16 Nordeste 27 Nordeste 0 -- -- 77
2020-08-06 01:00:00 18.1 15 Nordeste 24 Nordeste 0 -- -- 77
2020-08-06 00:00:00 18.4 15 Nordeste 26 Nordeste 0 -- -- 77
2020-08-05 23:00:00 18.6 17 Nordeste 28 Nordeste 0 -- -- 76
2020-08-05 22:00:00 18.5 19 Nordeste 26 Nordeste 0 -- -- 77
2020-08-05 21:00:00 18.6 21 Nordeste 24 Nordeste 0 -- -- 75
2020-08-05 20:00:00 19.4 19 Nordeste 21 Nordeste 0 -- -- 72
2020-08-05 19:00:00 19.9 17 Nordeste 20 Nordeste 0 -- -- 71
2020-08-05 18:00:00 20.1 13 Norte 19 Nordeste 0 -- -- 69
2020-08-05 17:00:00 20.8 15 Nordeste 18 Norte 0 -- -- 68
2020-08-05 16:00:00 21 14 Nordeste 18 Norte 0 -- -- 68
2020-08-05 15:00:00 20.4 13 Norte 20 Norte 0 -- -- 69
2020-08-05 14:00:00 20.4 13 Norte 22 Nordeste 0 -- -- 69
2020-08-05 13:00:00 20.4 18 Nordeste 21 Nordeste 0 -- -- 72
2020-08-05 12:00:00 20.3 15 Nordeste 19 Nordeste 0 -- -- 79
2020-08-05 11:00:00 18.5 12 Nordeste 16 Nordeste 0 -- -- 83
2020-08-05 10:00:00 17.7 9 Nordeste 17 Nordeste 0 -- -- 84
2020-08-05 09:00:00 17.3 13 Nordeste 21 Nordeste 0 -- -- 84
2020-08-05 08:00:00 17 13 Nordeste 23 Nordeste 0 -- -- 84
2020-08-05 07:00:00 16.5 14 Norte 20 Norte 0 -- -- 84
2020-08-05 06:00:00 16.8 11 Norte 21 Norte 0 -- -- 84
2020-08-05 05:00:00 16.8 12 Nordeste 24 Norte 0 -- -- 84
2020-08-05 04:00:00 17.2 16 Nordeste 24 Nordeste 0 -- -- 84
2020-08-05 03:00:00 17.7 16 Nordeste 23 Nordeste 0 -- -- 84
2020-08-05 02:00:00 17.9 18 Nordeste 24 Nordeste 0 -- -- 84
2020-08-05 01:00:00 17.8 19 Nordeste 26 Nordeste 0 -- -- 84
2020-08-05 00:00:00 17.9 21 Nordeste 26 Nordeste 0 -- -- 84
2020-08-04 23:00:00 17.7 21 Nordeste 29 Nordeste 0 -- -- 83
2020-08-04 22:00:00 17.5 25 Nordeste 28 Nordeste 0 -- -- 81
2020-08-04 21:00:00 17.6 24 Nordeste 27 Nordeste 0 -- -- 79
2020-08-04 20:00:00 18.1 24 Nordeste 29 Norte 0 -- -- 76
2020-08-04 19:00:00 18.4 21 Nordeste 26 Nordeste 0 -- -- 72
2020-08-04 18:00:00 18.9 21 Nordeste 26 Norte 0 -- -- 71
2020-08-04 17:00:00 19.4 21 Norte 26 Norte 0 -- -- 69
2020-08-04 16:00:00 20.2 17 Norte 23 Norte 0 -- -- 70
2020-08-04 15:00:00 19.6 14 Nordeste 21 Norte 0 -- -- 71
2020-08-04 14:00:00 19.6 17 Norte 23 Norte 0 -- -- 72
2020-08-04 13:00:00 19 18 Nordeste 25 Nordeste 0 -- -- 74
2020-08-04 12:00:00 19.3 23 Nordeste 28 Nordeste 0 -- -- 76
2020-08-04 11:00:00 18.7 18 Nordeste 24 Norte 0 -- -- 80
2020-08-04 10:00:00 17.6 16 Nordeste 26 Norte 0 -- -- 84
2020-08-04 09:00:00 16.6 17 Nordeste 28 Nordeste 0 -- -- 84
2020-08-04 08:00:00 16.4 21 Nordeste 27 Norte 0 -- -- 84
2020-08-04 07:00:00 16.6 15 Nordeste 23 Nordeste 0 -- -- 84
2020-08-04 06:00:00 16.4 18 Nordeste 23 Nordeste 0 -- -- 84
2020-08-04 05:00:00 16.3 17 Nordeste 27 Nordeste 0 -- -- 84
2020-08-04 04:00:00 16.4 16 Nordeste 26 Nordeste 0 -- -- 84
2020-08-04 03:00:00 16.4 17 Norte 23 Norte 0.2 -- -- 84
2020-08-04 02:00:00 16.5 17 Nordeste 25 Nordeste 0.1 -- -- 84
2020-08-04 01:00:00 16.6 19 Nordeste 24 Norte 0 -- -- 84
2020-08-04 00:00:00 16.8 21 Nordeste 25 Nordeste 0 -- -- 83
2020-08-03 23:00:00 17.4 8 Norte 12 Nordeste 0 -- -- 82
2020-08-03 22:00:00 17.6 9 Nordeste 14 Nordeste 0 -- -- 81
2020-08-03 21:00:00 17.5 9 Nordeste 15 Nordeste 0 -- -- 81
2020-08-03 20:00:00 17.8 10 Nordeste 14 Norte 0 -- -- 81
2020-08-03 19:00:00 18.1 13 Norte 20 Noroeste 0.1 -- -- 77
2020-08-03 18:00:00 19.1 7 Oeste 13 Oeste 0 -- -- 72
2020-08-03 17:00:00 19.7 5 Oeste 12 Sudoeste 0 -- -- 71
2020-08-03 16:00:00 20 7 Sudoeste 14 Sudoeste 0 -- -- 70
2020-08-03 15:00:00 19.5 10 Sudoeste 15 Sudoeste 0 -- -- 72
2020-08-03 14:00:00 18.5 12 Sudoeste 19 Sur 0 -- -- 72
2020-08-03 13:00:00 18.4 13 Sudoeste 18 Sur 0 -- -- 73
2020-08-03 12:00:00 17.9 12 Sur 18 Sudoeste 0 -- -- 74
2020-08-03 11:00:00 17.7 12 Sudoeste 20 Sur 0 -- -- 74
2020-08-03 10:00:00 16.6 16 Sudoeste 22 Sudoeste 0 -- -- 74
2020-08-03 09:00:00 16.6 14 Sur 19 Sur 0 -- -- 73
2020-08-03 08:00:00 16.5 12 Sur 15 Sur 0 -- -- 73
2020-08-03 07:00:00 16.8 6 Sudeste 16 Sur 0 -- -- 73
2020-08-03 06:00:00 15.9 13 Sudeste 18 Sur 0 -- -- 77
2020-08-03 05:00:00 15.4 12 Sudeste 16 Sudeste 0 -- -- 77
2020-08-03 04:00:00 15.3 11 Sudeste 14 Sudeste 0 -- -- 76
2020-08-03 03:00:00 16.2 0 Calma 4 Nordeste 0 -- -- 76
2020-08-03 02:00:00 16.2 0 Calma 5 Nordeste 0 -- -- 76
2020-08-03 01:00:00 16.1 3 Nordeste 13 Nordeste 0 -- -- 76
2020-08-03 00:00:00 16.1 12 Nordeste 18 Norte 0 -- -- 77
2020-08-02 23:00:00 15.8 12 Norte 21 Nordeste 0 -- -- 77
2020-08-02 22:00:00 16.5 19 Nordeste 22 Nordeste 0 -- -- 75
2020-08-02 21:00:00 16.9 15 Nordeste 19 Nordeste 0 -- -- 73
2020-08-02 20:00:00 17.6 17 Nordeste 21 Nordeste 0 -- -- 69
2020-08-02 19:00:00 18.1 17 Nordeste 22 Norte 0 -- -- 67
2020-08-02 18:00:00 19 16 Norte 20 Nordeste 0 -- -- 65
2020-08-02 17:00:00 19.1 16 Norte 23 Norte 0 -- -- 65
2020-08-02 16:00:00 19.4 15 Norte 19 Norte 0 -- -- 64
2020-08-02 15:00:00 19.6 17 Norte 22 Nordeste 0 -- -- 66
2020-08-02 14:00:00 18.6 17 Norte 22 Norte 0 -- -- 68
2020-08-02 13:00:00 18.8 14 Nordeste 22 Nordeste 0 -- -- 71
2020-08-02 12:00:00 18.7 19 Nordeste 26 Nordeste 0 -- -- 72
2020-08-02 11:00:00 16.9 22 Nordeste 28 Nordeste 0 -- -- 77
2020-08-02 10:00:00 17.2 23 Nordeste 30 Nordeste 0 -- -- 77
2020-08-02 09:00:00 16.2 20 Nordeste 27 Nordeste 0 -- -- 81
2020-08-02 08:00:00 16 19 Nordeste 25 Nordeste 0 -- -- 81
2020-08-02 07:00:00 16 19 Nordeste 28 Nordeste 0 -- -- 81
2020-08-02 06:00:00 15.9 19 Nordeste 28 Nordeste 0 -- -- 81
2020-08-02 05:00:00 15.5 17 Nordeste 32 Nordeste 0 -- -- 81
2020-08-02 04:00:00 15.7 23 Nordeste 29 Nordeste 0 -- -- 81
2020-08-02 03:00:00 16 24 Nordeste 31 Nordeste 0 -- -- 81
2020-08-02 02:00:00 15.8 23 Nordeste 33 Nordeste 0 -- -- 80
2020-08-02 01:00:00 16 27 Nordeste 32 Norte 0 -- -- 81
2020-08-02 00:00:00 15.7 24 Nordeste 29 Nordeste 0 -- -- 81
2020-08-01 23:00:00 15.8 24 Nordeste 28 Nordeste 0 -- -- 80
2020-08-01 22:00:00 16 24 Nordeste 30 Nordeste 0 -- -- 78
2020-08-01 21:00:00 17.6 24 Nordeste 32 Nordeste 0 -- -- 74
2020-08-01 20:00:00 18.4 26 Nordeste 31 Nordeste 0 -- -- 71
2020-08-01 19:00:00 19.1 23 Nordeste 26 Nordeste 0 -- -- 70
2020-08-01 18:00:00 19.6 18 Nordeste 23 Nordeste 0 -- -- 68
2020-08-01 17:00:00 20.2 18 Nordeste 21 Nordeste 0 -- -- 68
2020-08-01 16:00:00 20.2 15 Norte 18 Norte 0 -- -- 69
2020-08-01 15:00:00 19.9 11 Norte 14 Norte 0 -- -- 73
2020-08-01 14:00:00 18.8 9 Norte 15 Norte 0 -- -- 77
2020-08-01 13:00:00 18.3 7 Nordeste 12 Norte 0 -- -- 81
2020-08-01 12:00:00 18.3 9 Norte 12 Norte 0 -- -- 83
2020-08-01 11:00:00 18.1 7 Norte 13 Norte 0 -- -- 83
2020-08-01 10:00:00 17.3 0 Calma 13 Nordeste 0 -- -- 84
2020-08-01 09:00:00 16.5 7 Nordeste 10 Nordeste 0 -- -- 84
2020-08-01 08:00:00 16.3 8 Nordeste 15 Nordeste 0 -- -- 84
2020-08-01 07:00:00 16.8 9 Nordeste 18 Nordeste 0 -- -- 84
2020-08-01 06:00:00 16.3 6 Nordeste 9 Nordeste 0 -- -- 84
2020-08-01 05:00:00 16.4 5 Nordeste 12 Nordeste 0 -- -- 84
2020-08-01 04:00:00 16.7 8 Nordeste 13 Nordeste 0 -- -- 83
2020-08-01 03:00:00 16.7 6 Nordeste 13 Nordeste 0 -- -- 82
2020-08-01 02:00:00 17.5 9 Nordeste 15 Nordeste 0 -- -- 82
2020-08-01 01:00:00 17.6 8 Nordeste 11 Nordeste 0 -- -- 81
2020-08-01 00:00:00 17.3 0 Calma -- -- 0 -- -- 81
2020-07-31 23:00:00 17.6 0 Calma 4 Nordeste 0 -- -- 80
2020-07-31 22:00:00 18 0 Calma 4 Sur 0 -- -- 80
2020-07-31 21:00:00 17.9 3 Sur 10 Sudoeste 0 -- -- 78
2020-07-31 20:00:00 17.7 7 Sudoeste 17 Sudoeste 0 -- -- 77
2020-07-31 19:00:00 17.6 13 Sudoeste 21 Sudoeste 0 -- -- 73
2020-07-31 18:00:00 17.4 16 Sudoeste 26 Sudoeste 0 -- -- 69
2020-07-31 17:00:00 18.6 19 Sudoeste 25 Sudoeste 0 -- -- 66
2020-07-31 16:00:00 19.1 15 Sur 26 Sudoeste 0 -- -- 66
2020-07-31 15:00:00 19.7 15 Sur 24 Sudoeste 0 -- -- 67
2020-07-31 14:00:00 17.7 15 Sur 28 Sudoeste 0 -- -- 69
2020-07-31 13:00:00 17.6 28 Sudoeste 41 Sudoeste 0 -- -- 71
2020-07-31 12:00:00 17.7 27 Sudoeste 35 Sudoeste 0 -- -- 71
2020-07-31 11:00:00 18.5 20 Sudoeste 31 Sudoeste 0 -- -- 72
2020-07-31 10:00:00 17.7 16 Sur 22 Sur 0 -- -- 80
2020-07-31 09:00:00 16.3 15 Sur 22 Sudoeste 0 -- -- 83
2020-07-31 08:00:00 15.9 15 Sudoeste 28 Sudoeste 0 -- -- 83
2020-07-31 07:00:00 15.8 14 Sudoeste 22 Sur 0 -- -- 82
2020-07-31 06:00:00 15.7 16 Sudoeste 22 Sudoeste 0 -- -- 81
2020-07-31 05:00:00 16.7 17 Sur 24 Sur 0 -- -- 81
2020-07-31 04:00:00 16.8 15 Sur 23 Sur 0 -- -- 81
2020-07-31 03:00:00 16.1 15 Sur 23 Sur 0 -- -- 81
2020-07-31 02:00:00 15.6 14 Sur 18 Sur 0 -- -- 79
2020-07-31 01:00:00 16.9 10 Sur 16 Sur 0 -- -- 77
2020-07-31 00:00:00 17.8 8 Sur 13 Sudeste 0 -- -- 74
2020-07-30 23:00:00 17.9 4 Sur 7 Sur 0 -- -- 73
2020-07-30 22:00:00 18.5 5 Sur 12 Sudoeste 0 -- -- 70
2020-07-30 21:00:00 19.1 8 Sudoeste 14 Sudoeste 0 -- -- 69
2020-07-30 20:00:00 20 11 Sur 23 Sudoeste 0 -- -- 68
2020-07-30 19:00:00 19.3 22 Sudoeste 37 Sudoeste 0 -- -- 68
2020-07-30 18:00:00 19.7 29 Sudoeste 39 Sudoeste 0 -- -- 63
2020-07-30 17:00:00 20 30 Sudoeste 46 Sudoeste 0 -- -- 62
2020-07-30 16:00:00 19.7 33 Sudoeste 43 Sudoeste 0 -- -- 61
2020-07-30 15:00:00 20.5 28 Sudoeste 41 Sudoeste 0 -- -- 57
2020-07-30 14:00:00 18.9 21 Sur 40 Sudoeste 0 -- -- 65
2020-07-30 13:00:00 19.9 21 Sudoeste 32 Sudoeste 0 -- -- 63
2020-07-30 12:00:00 20.4 0 Calma 10 Noroeste 0 -- -- 66
2020-07-30 11:00:00 20.4 5 Sudoeste 10 Sudoeste 0 -- -- 69
2020-07-30 10:00:00 20 0 Calma 9 Sudoeste 0 -- -- 73
2020-07-30 09:00:00 19.9 4 Sur 9 Sudeste 0 -- -- 78
2020-07-30 08:00:00 17.6 3 Sudeste 8 Sudeste 0 -- -- 80
2020-07-30 07:00:00 16.7 0 Calma 0 Calma 0 -- -- 80
2020-07-30 06:00:00 16.5 0 Calma 15 Sudeste 0 -- -- 80
2020-07-30 05:00:00 15.9 7 Nordeste 9 Nordeste 0 -- -- 80
2020-07-30 04:00:00 17.5 5 Este 20 Este 0 -- -- 81
2020-07-30 03:00:00 16.9 18 Este 26 Norte 0 -- -- 81
2020-07-30 02:00:00 15.1 21 Nordeste 27 Nordeste 0 -- -- 81
2020-07-30 01:00:00 15.7 17 Nordeste 29 Nordeste 0 -- -- 80
2020-07-30 00:00:00 16.1 21 Nordeste 38 Nordeste 0 -- -- 79
2020-07-29 23:00:00 16.2 27 Nordeste 39 Norte 0 -- -- 77
2020-07-29 22:00:00 16.5 27 Nordeste 42 Nordeste 0 -- -- 75
2020-07-29 21:00:00 17.1 37 Nordeste 48 Nordeste 0 -- -- 73
2020-07-29 20:00:00 17.9 38 Nordeste 50 Nordeste 0 -- -- 69
2020-07-29 19:00:00 18.2 42 Nordeste 53 Nordeste 0 -- -- 68
2020-07-29 18:00:00 18.4 42 Nordeste 53 Nordeste 0 -- -- 68
2020-07-29 17:00:00 18.7 44 Nordeste 57 Nordeste 0 -- -- 68
2020-07-29 16:00:00 18.6 48 Nordeste 59 Nordeste 0 -- -- 68
2020-07-29 15:00:00 18.5 51 Nordeste 62 Nordeste 0 -- -- 68
2020-07-29 14:00:00 18.7 51 Nordeste 67 Nordeste 0 -- -- 69
2020-07-29 13:00:00 18.2 52 Nordeste 67 Nordeste 0 -- -- 71
2020-07-29 12:00:00 18.1 51 Nordeste 61 Nordeste 0 -- -- 71
2020-07-29 11:00:00 17.9 42 Nordeste 53 Nordeste 0 -- -- 73
2020-07-29 10:00:00 17.3 41 Nordeste 55 Nordeste 0 -- -- 75
2020-07-29 09:00:00 16.7 46 Nordeste 57 Nordeste 0 -- -- 76
2020-07-29 08:00:00 16.7 45 Nordeste 63 Nordeste 0 -- -- 74
2020-07-29 07:00:00 16.8 49 Nordeste 61 Nordeste 0 -- -- 73
2020-07-29 06:00:00 16.7 49 Nordeste 60 Nordeste 0 -- -- 72
2020-07-29 05:00:00 16.7 43 Nordeste 60 Nordeste 0 -- -- 71
2020-07-29 04:00:00 16.8 43 Nordeste 61 Nordeste 0 -- -- 70
2020-07-29 03:00:00 16.8 41 Nordeste 68 Nordeste 0 -- -- 70
2020-07-29 02:00:00 16.9 44 Nordeste 69 Nordeste 0 -- -- 70
2020-07-29 01:00:00 16.6 44 Nordeste 64 Nordeste 0 -- -- 70
2020-07-29 00:00:00 16.6 44 Nordeste 63 Nordeste 0 -- -- 70
2020-07-28 23:00:00 16.7 47 Nordeste 62 Nordeste 0 -- -- 70
2020-07-28 22:00:00 16.5 48 Nordeste 72 Nordeste 0 -- -- 67
2020-07-28 21:00:00 17 48 Nordeste 69 Nordeste 0.1 -- -- 63
2020-07-28 20:00:00 17.6 49 Nordeste 65 Nordeste 0 -- -- 63
2020-07-28 19:00:00 17.7 49 Nordeste 58 Nordeste 0 -- -- 65
2020-07-28 18:00:00 18.1 43 Nordeste 57 Nordeste 0 -- -- 65
2020-07-28 17:00:00 18.3 46 Nordeste 57 Nordeste 0 -- -- 65
2020-07-28 16:00:00 18.2 42 Nordeste 51 Nordeste 0 -- -- 69
2020-07-28 15:00:00 18.3 34 Nordeste 45 Nordeste 0 -- -- 76
2020-07-28 14:00:00 16.9 35 Nordeste 45 Nordeste 0 -- -- 83
2020-07-28 13:00:00 16.1 33 Nordeste 37 Nordeste 0 -- -- 84
2020-07-28 12:00:00 16.1 33 Nordeste 40 Nordeste 0 -- -- 84
2020-07-28 11:00:00 16.2 30 Nordeste 36 Nordeste 0 -- -- 84
2020-07-28 10:00:00 16.6 33 Nordeste 39 Nordeste 0 -- -- 84
2020-07-28 09:00:00 16.5 26 Nordeste 33 Nordeste 0 -- -- 84
2020-07-28 08:00:00 16.4 17 Nordeste 22 Norte 0 -- -- 84
2020-07-28 07:00:00 16.3 11 Nordeste 20 Nordeste 0 -- -- 84
2020-07-28 06:00:00 17.3 11 Norte 23 Nordeste 0 -- -- 84
2020-07-28 05:00:00 17.6 14 Nordeste 22 Nordeste 0 -- -- 84
2020-07-28 04:00:00 17.5 15 Nordeste 22 Nordeste 0 -- -- 84
2020-07-28 03:00:00 17.5 14 Nordeste 20 Nordeste 0 -- -- 84
2020-07-28 02:00:00 17.5 8 Nordeste 10 Nordeste 0 -- -- 83
2020-07-28 01:00:00 18.1 7 Nordeste 9 Nordeste 0 -- -- 82
2020-07-28 00:00:00 18.5 3 Nordeste 10 Este 0.1 -- -- 82
2020-07-27 23:00:00 18.7 5 Nordeste 8 Nordeste 0 -- -- 81
2020-07-27 22:00:00 18.9 0 Calma -- -- 0.1 -- -- 81
2020-07-27 21:00:00 19.2 0 Calma 12 Sudoeste 0 -- -- 80
2020-07-27 20:00:00 19.9 7 Sudoeste 15 Sudoeste 0 -- -- 78
2020-07-27 19:00:00 20.4 12 Sudoeste 20 Sudoeste 0 -- -- 74
2020-07-27 18:00:00 21.3 15 Sudoeste 25 Sudoeste 0 -- -- 71
2020-07-27 17:00:00 20.4 20 Sudoeste 27 Sudoeste 0 -- -- 71
2020-07-27 16:00:00 20.8 21 Sudoeste 28 Sudoeste 0 -- -- 71
2020-07-27 15:00:00 21.1 18 Sudoeste 27 Sudoeste 0 -- -- 69
2020-07-27 14:00:00 21.4 19 Sudoeste 27 Sudoeste 0 -- -- 69
2020-07-27 13:00:00 21.8 19 Sur 25 Sudoeste 0 -- -- 74
2020-07-27 12:00:00 20 19 Sudoeste 25 Sudoeste 0 -- -- 79
2020-07-27 09:00:00 18.5 12 Sudeste 15 Sur 0 -- -- 81
2020-07-27 08:00:00 17.8 13 Sur 17 Sur 0 -- -- 80
2020-07-27 07:00:00 17.9 11 Sur 18 Sur 0 -- -- 78
2020-07-27 06:00:00 17.4 13 Sur 15 Sur 0 -- -- 76
2020-07-27 05:00:00 16.9 11 Sur 17 Sudoeste 0 -- -- 73
2020-07-27 04:00:00 18.1 7 Sur 17 Sudeste 0 -- -- 74
2020-07-27 03:00:00 16.4 12 Sudeste 16 Sudeste 0 -- -- 78
2020-07-27 02:00:00 16.7 10 Sudeste 15 Sudeste 0 -- -- 78
2020-07-27 01:00:00 17.1 2 Nordeste 6 Nordeste 0 -- -- 79
2020-07-27 00:00:00 16.6 6 Nordeste 12 Este 0 -- -- 79
2020-07-26 23:00:00 16.6 7 Nordeste 15 Nordeste 0 -- -- 79
2020-07-26 22:00:00 17.4 14 Nordeste 17 Nordeste 0 -- -- 77
2020-07-26 21:00:00 17.9 14 Nordeste 18 Norte 0 -- -- 75
2020-07-26 20:00:00 18.3 14 Norte 21 Nordeste 0 -- -- 71
2020-07-26 19:00:00 19.3 19 Nordeste 23 Nordeste 0 -- -- 68
2020-07-26 18:00:00 20.1 20 Nordeste 23 Nordeste 0 -- -- 67
2020-07-26 17:00:00 20 18 Nordeste 21 Nordeste 0 -- -- 69
2020-07-26 16:00:00 19.7 15 Nordeste 22 Nordeste 0 -- -- 69
2020-07-26 15:00:00 19.8 15 Nordeste 20 Nordeste 0 -- -- 71
2020-07-26 14:00:00 19.3 13 Norte 21 Nordeste 0 -- -- 71
2020-07-26 13:00:00 19.6 17 Nordeste 20 Nordeste 0 -- -- 75
2020-07-26 12:00:00 18.8 11 Norte 18 Nordeste 0 -- -- 79
2020-07-26 11:00:00 17.9 9 Norte 16 Nordeste 0 -- -- 83
2020-07-26 10:00:00 17.5 9 Nordeste 17 Nordeste 0 -- -- 84
2020-07-26 09:00:00 17.2 10 Nordeste 19 Este 0 -- -- 84
2020-07-26 08:00:00 16.9 12 Nordeste 16 Nordeste 0 -- -- 84
2020-07-26 07:00:00 17 10 Nordeste 14 Nordeste 0 -- -- 84
2020-07-26 06:00:00 17.4 8 Nordeste 11 Nordeste 0 -- -- 84
2020-07-26 05:00:00 17.2 0 Calma -- -- 0 -- -- 84
2020-07-26 04:00:00 17.7 0 Calma -- -- 0 -- -- 84
2020-07-26 03:00:00 18.1 0 Calma 3 Noroeste 0 -- -- 84
2020-07-26 02:00:00 18.2 0 Calma 8 Oeste 0 -- -- 84
2020-07-26 01:00:00 18.4 4 Sur 11 Sudoeste 0 -- -- 83
2020-07-26 00:00:00 18.2 8 Sudoeste 14 Sudoeste 0 -- -- 83
2020-07-25 23:00:00 18.2 10 Sur 18 Sudoeste 0 -- -- 82
2020-07-25 22:00:00 18.2 14 Sudoeste 20 Sudoeste 0 -- -- 80
2020-07-25 21:00:00 18.7 15 Sudoeste 22 Sudoeste 0 -- -- 75
2020-07-25 20:00:00 20.4 16 Sudoeste 24 Sudoeste 0 -- -- 69
2020-07-25 19:00:00 21.1 17 Sudoeste 23 Sudoeste 0 -- -- 68
2020-07-25 18:00:00 20 18 Sudoeste 25 Sudoeste 0 -- -- 66
2020-07-25 17:00:00 21.6 17 Sudoeste 24 Sudoeste 0 -- -- 60
2020-07-25 16:00:00 21.4 18 Sudoeste 23 Sudoeste 0 -- -- 61
2020-07-25 15:00:00 21.7 15 Sudoeste 19 Sudoeste 0 -- -- 61
2020-07-25 14:00:00 20.9 12 Sudoeste 17 Sudoeste 0 -- -- 63
2020-07-25 13:00:00 20.7 10 Sudoeste 15 Sudoeste 0 -- -- 65
2020-07-25 12:00:00 20 8 Sudoeste 11 Sudoeste 0 -- -- 69
2020-07-25 11:00:00 18.4 0 Calma 11 Oeste 0 -- -- 73
2020-07-25 10:00:00 18.1 0 Calma -- -- 0 -- -- 73
2020-07-25 09:00:00 18.4 0 Calma 15 Este 0 -- -- 75
2020-07-25 08:00:00 16.9 12 Este 16 Este 0 -- -- 76
2020-07-25 07:00:00 16.8 0 Calma 19 Este 0 -- -- 75
2020-07-25 06:00:00 17.3 15 Este 26 Nordeste 0 -- -- 76
2020-07-25 05:00:00 17.2 19 Nordeste 28 Nordeste 0 -- -- 77
2020-07-25 04:00:00 16.1 11 Nordeste 14 Nordeste 0 -- -- 78
2020-07-25 03:00:00 15.8 9 Nordeste 15 Nordeste 0 -- -- 77
2020-07-25 02:00:00 16.8 12 Nordeste 22 Nordeste 0 -- -- 77
2020-07-25 01:00:00 17 15 Nordeste 21 Nordeste 0 -- -- 77
2020-07-25 00:00:00 16.9 15 Nordeste 21 Nordeste 0 -- -- 79
2020-07-24 23:00:00 16.9 16 Nordeste 21 Nordeste 0 -- -- 79
2020-07-24 22:00:00 17.3 15 Nordeste 18 Nordeste 0 -- -- 77
2020-07-24 21:00:00 17.9 14 Nordeste 19 Nordeste 0 -- -- 73
2020-07-24 20:00:00 18.9 18 Nordeste 24 Nordeste 0 -- -- 69
2020-07-24 19:00:00 19.4 19 Nordeste 22 Nordeste 0 -- -- 68
2020-07-24 18:00:00 19.4 18 Nordeste 23 Nordeste 0 -- -- 68
2020-07-24 17:00:00 19.3 19 Nordeste 23 Nordeste 0 -- -- 68
2020-07-24 16:00:00 20.1 16 Nordeste 21 Norte 0 -- -- 68
2020-07-24 15:00:00 19.8 14 Norte 19 Nordeste 0 -- -- 66
2020-07-24 14:00:00 19.5 12 Norte 16 Noroeste 0 -- -- 68
2020-07-24 13:00:00 19.9 12 Norte 16 Nordeste 0 -- -- 68
2020-07-24 12:00:00 18.6 10 Nordeste 13 Nordeste 0 -- -- 76
2020-07-24 11:00:00 16.6 9 Nordeste 14 Nordeste 0 -- -- 80
2020-07-24 10:00:00 16.3 9 Nordeste 14 Nordeste 0 -- -- 81
2020-07-24 09:00:00 15.5 7 Nordeste 14 Nordeste 0 -- -- 81
2020-07-24 08:00:00 15.1 7 Nordeste 21 Nordeste 0 -- -- 80
2020-07-24 07:00:00 16.4 13 Nordeste 18 Nordeste 0 -- -- 81
2020-07-24 06:00:00 16 12 Nordeste 21 Este 0 -- -- 83
2020-07-24 05:00:00 15.8 14 Nordeste 22 Nordeste 0 -- -- 84
2020-07-24 04:00:00 15.8 17 Nordeste 22 Nordeste 0 -- -- 84
2020-07-24 03:00:00 15.4 18 Nordeste 21 Nordeste 0 -- -- 84
2020-07-24 02:00:00 15.1 17 Nordeste 24 Nordeste 0 -- -- 83
2020-07-24 01:00:00 15.4 19 Nordeste 26 Nordeste 0 -- -- 83
2020-07-24 00:00:00 15.3 20 Nordeste 26 Nordeste 0 -- -- 82
2020-07-23 23:00:00 15.4 19 Nordeste 23 Nordeste 0 -- -- 81
2020-07-23 22:00:00 16.3 21 Nordeste 27 Nordeste 0 -- -- 79
2020-07-23 21:00:00 16 22 Nordeste 28 Nordeste 0 -- -- 76
2020-07-23 20:00:00 17 23 Nordeste 30 Nordeste 0 -- -- 73
2020-07-23 19:00:00 18.4 26 Nordeste 31 Nordeste 0 -- -- 70
2020-07-23 18:00:00 18.7 24 Nordeste 28 Nordeste 0 -- -- 70
2020-07-23 17:00:00 18.9 23 Nordeste 26 Nordeste 0 -- -- 70
2020-07-23 16:00:00 18.8 20 Nordeste 24 Nordeste 0 -- -- 70
2020-07-23 15:00:00 18.4 19 Nordeste 26 Nordeste 0 -- -- 71
2020-07-23 14:00:00 18.1 21 Nordeste 27 Norte 0 -- -- 69
2020-07-23 13:00:00 18.4 24 Nordeste 33 Nordeste 0 -- -- 69
2020-07-23 12:00:00 19.4 26 Nordeste 37 Nordeste 0 -- -- 72
2020-07-23 11:00:00 18.2 28 Nordeste 39 Nordeste 0 -- -- 79
2020-07-23 10:00:00 16.4 28 Nordeste 36 Nordeste 0 -- -- 84
2020-07-23 09:00:00 15.9 30 Nordeste 36 Nordeste 0 -- -- 84
2020-07-23 08:00:00 16.2 28 Nordeste 40 Nordeste 0 -- -- 84
2020-07-23 07:00:00 16.4 32 Nordeste 41 Nordeste 0 -- -- 84
2020-07-23 06:00:00 16.5 30 Nordeste 44 Nordeste 0 -- -- 84
2020-07-23 05:00:00 15.2 30 Nordeste 35 Nordeste 0 -- -- 84
2020-07-23 04:00:00 16.2 24 Nordeste 44 Nordeste 0 -- -- 82
2020-07-23 03:00:00 17.1 24 Nordeste 44 Nordeste 0 -- -- 81
2020-07-23 02:00:00 17 28 Nordeste 42 Nordeste 0 -- -- 81
2020-07-23 01:00:00 16.9 31 Nordeste 42 Nordeste 0 -- -- 81
2020-07-23 00:00:00 17.2 26 Nordeste 55 Nordeste 0 -- -- 79
2020-07-22 23:00:00 17.6 29 Nordeste 48 Nordeste 0 -- -- 79
2020-07-22 22:00:00 17.5 30 Nordeste 45 Nordeste 0 -- -- 78
2020-07-22 21:00:00 18.1 36 Nordeste 55 Nordeste 0 -- -- 76
2020-07-22 20:00:00 18.3 41 Nordeste 56 Nordeste 0 -- -- 75
2020-07-22 19:00:00 18 37 Nordeste 56 Nordeste 0 -- -- 74
2020-07-22 18:00:00 18.7 42 Nordeste 57 Nordeste 0 -- -- 72
2020-07-22 17:00:00 18.9 43 Nordeste 58 Nordeste 0 -- -- 72
2020-07-22 16:00:00 17.8 38 Nordeste 56 Nordeste 0 -- -- 73
2020-07-22 15:00:00 18.7 44 Nordeste 55 Nordeste 0 -- -- 72
2020-07-22 14:00:00 18.7 42 Nordeste 50 Nordeste 0 -- -- 69
2020-07-22 13:00:00 18.8 36 Nordeste 43 Nordeste 0 -- -- 69
2020-07-22 12:00:00 18.9 36 Nordeste 45 Nordeste 0 -- -- 70
2020-07-22 11:00:00 18.9 32 Nordeste 43 Nordeste 0 -- -- 72
2020-07-22 10:00:00 17.5 31 Nordeste 39 Nordeste 0 -- -- 76
2020-07-22 09:00:00 16.1 29 Nordeste 44 Nordeste 0 -- -- 77
2020-07-22 08:00:00 16.1 28 Nordeste 44 Nordeste 0 -- -- 78
2020-07-22 07:00:00 16.2 28 Nordeste 39 Nordeste 0 -- -- 79
2020-07-22 06:00:00 16.4 30 Nordeste 56 Nordeste 0 -- -- 79
2020-07-22 05:00:00 16.4 41 Nordeste 63 Nordeste 0 -- -- 79
2020-07-22 04:00:00 16.4 37 Nordeste 58 Nordeste 0 -- -- 79
2020-07-22 03:00:00 16.4 37 Nordeste 53 Nordeste 0 -- -- 79
2020-07-22 02:00:00 16.5 41 Nordeste 60 Nordeste 0 -- -- 79
2020-07-22 01:00:00 16.6 33 Nordeste 57 Norte 0 -- -- 78
2020-07-22 00:00:00 16.5 44 Nordeste 66 Nordeste 0 -- -- 78
2020-07-21 23:00:00 16.6 46 Nordeste 67 Nordeste 0 -- -- 77
2020-07-21 22:00:00 16.7 48 Nordeste 73 Nordeste 0 -- -- 76
2020-07-21 21:00:00 16.8 51 Nordeste 75 Nordeste 0 -- -- 74
2020-07-21 20:00:00 17 57 Nordeste 72 Nordeste 0 -- -- 72
2020-07-21 19:00:00 17.9 50 Nordeste 75 Nordeste 0 -- -- 70
2020-07-21 18:00:00 17.6 56 Nordeste 87 Nordeste 0 -- -- 70
2020-07-21 17:00:00 18 59 Nordeste 81 Nordeste 0 -- -- 69
2020-07-21 16:00:00 18.4 57 Nordeste 82 Nordeste 0 -- -- 69
2020-07-21 15:00:00 18.3 53 Nordeste 80 Nordeste 0 -- -- 69
2020-07-21 14:00:00 18.3 57 Nordeste 74 Nordeste 0 -- -- 67
2020-07-21 13:00:00 18.3 54 Nordeste 72 Nordeste 0 -- -- 66
2020-07-21 12:00:00 18.5 45 Nordeste 64 Nordeste 0 -- -- 66
2020-07-21 11:00:00 18.1 44 Nordeste 58 Nordeste 0 -- -- 68
2020-07-21 10:00:00 17.1 40 Nordeste 59 Nordeste 0 -- -- 69
2020-07-21 09:00:00 17.1 42 Nordeste 69 Nordeste 0 -- -- 70
2020-07-21 08:00:00 16.3 48 Nordeste 70 Nordeste 0 -- -- 72
2020-07-21 07:00:00 16.2 45 Nordeste 62 Norte 0 -- -- 73
2020-07-21 06:00:00 16.1 48 Nordeste 70 Nordeste 0 -- -- 72
2020-07-21 05:00:00 16.2 47 Nordeste 67 Nordeste 0 -- -- 72
2020-07-21 04:00:00 16.1 44 Nordeste 66 Nordeste 0 -- -- 73
2020-07-21 03:00:00 16.3 49 Nordeste 63 Nordeste 0 -- -- 73
2020-07-21 02:00:00 16.2 42 Nordeste 66 Nordeste 0 -- -- 72
2020-07-21 01:00:00 16.2 48 Nordeste 69 Nordeste 0 -- -- 72
2020-07-21 00:00:00 16.2 53 Nordeste 68 Nordeste 0 -- -- 72
2020-07-20 23:00:00 16.2 49 Nordeste 69 Nordeste 0 -- -- 72
2020-07-20 22:00:00 16.4 55 Nordeste 69 Nordeste 0 -- -- 72
2020-07-20 21:00:00 15.9 46 Nordeste 59 Nordeste 0 -- -- 72
2020-07-20 20:00:00 16.3 48 Nordeste 65 Nordeste 0 -- -- 69
2020-07-20 19:00:00 17.2 46 Nordeste 67 Nordeste 0 -- -- 67
2020-07-20 18:00:00 17.7 51 Nordeste 66 Nordeste 0 -- -- 66
2020-07-20 17:00:00 17.8 49 Nordeste 72 Nordeste 0 -- -- 66
2020-07-20 16:00:00 17.9 49 Nordeste 70 Nordeste 0 -- -- 66
2020-07-20 15:00:00 18 52 Nordeste 67 Nordeste 0 -- -- 66
2020-07-20 14:00:00 17.9 45 Nordeste 66 Nordeste 0 -- -- 69
2020-07-20 13:00:00 17 48 Nordeste 67 Nordeste 0 -- -- 71
2020-07-20 12:00:00 17.4 49 Nordeste 68 Nordeste 0 -- -- 70
2020-07-20 11:00:00 17.2 47 Nordeste 64 Nordeste 0 -- -- 71
2020-07-20 10:00:00 17.4 52 Nordeste 69 Nordeste 0 -- -- 67
2020-07-20 09:00:00 16.9 53 Nordeste 65 Nordeste 0 -- -- 70
2020-07-20 08:00:00 16.5 46 Nordeste 61 Nordeste 0 -- -- 74
2020-07-20 07:00:00 16.3 37 Nordeste 56 Nordeste 0 -- -- 75
2020-07-20 06:00:00 16.4 40 Nordeste 61 Nordeste 0 -- -- 75
2020-07-20 05:00:00 16.3 39 Nordeste 55 Nordeste 0 -- -- 77
2020-07-20 04:00:00 16.1 35 Nordeste 48 Nordeste 0 -- -- 77
2020-07-20 03:00:00 16.4 33 Nordeste 49 Nordeste 0 -- -- 79
2020-07-20 02:00:00 16 29 Nordeste 48 Nordeste 0 -- -- 80
2020-07-20 01:00:00 16.2 34 Nordeste 46 Nordeste 0 -- -- 80
2020-07-20 00:00:00 15.9 34 Nordeste 51 Nordeste 0 -- -- 80
2020-07-19 23:00:00 16 39 Nordeste 49 Nordeste 0 -- -- 80
2020-07-19 22:00:00 15.7 41 Nordeste 52 Nordeste 0 -- -- 80
2020-07-19 21:00:00 16 40 Nordeste 51 Nordeste 0 -- -- 81
2020-07-19 20:00:00 16.1 37 Nordeste 44 Nordeste 0 -- -- 80
2020-07-19 19:00:00 16.2 35 Nordeste 42 Nordeste 0 -- -- 79
2020-07-19 18:00:00 16.8 36 Nordeste 44 Nordeste 0 -- -- 77
2020-07-19 17:00:00 17.2 37 Nordeste 50 Nordeste 0 -- -- 77
2020-07-19 16:00:00 17.6 41 Nordeste 54 Nordeste 0 -- -- 78
2020-07-19 15:00:00 17.6 39 Nordeste 54 Nordeste 0 -- -- 81
2020-07-19 14:00:00 16.4 39 Nordeste 52 Nordeste 0 -- -- 84
2020-07-19 13:00:00 16.3 32 Nordeste 49 Nordeste 0 -- -- 84
2020-07-19 12:00:00 16.5 35 Nordeste 50 Nordeste 0 -- -- 84
2020-07-19 11:00:00 16.6 36 Nordeste 49 Nordeste 0 -- -- 84
2020-07-19 10:00:00 16.6 34 Nordeste 45 Nordeste 0 -- -- 84
2020-07-19 09:00:00 16.4 36 Nordeste 45 Nordeste 0 -- -- 84
2020-07-19 08:00:00 16.7 36 Nordeste 45 Nordeste 0 -- -- 84
2020-07-19 07:00:00 16.6 33 Nordeste 41 Nordeste 0 -- -- 84
2020-07-19 06:00:00 16.1 31 Nordeste 37 Nordeste 0 -- -- 84
2020-07-19 05:00:00 16 30 Nordeste 46 Nordeste 0 -- -- 84
2020-07-19 04:00:00 16.8 36 Nordeste 48 Nordeste 0 -- -- 84
2020-07-19 03:00:00 16.2 28 Nordeste 40 Nordeste 0 -- -- 84
2020-07-19 02:00:00 15.9 31 Nordeste 37 Nordeste 0 -- -- 84
2020-07-19 01:00:00 15.4 23 Norte 28 Nordeste 0 -- -- 84
2020-07-19 00:00:00 16.7 15 Nordeste 37 Nordeste 0 -- -- 83
2020-07-18 23:00:00 17.1 25 Nordeste 44 Nordeste 0 -- -- 82
2020-07-18 22:00:00 16.5 32 Nordeste 43 Nordeste 0 -- -- 81
2020-07-18 21:00:00 16.4 24 Norte 30 Norte 0 -- -- 75
2020-07-18 20:00:00 17.3 14 Nordeste 27 Nordeste 0 -- -- 70
2020-07-18 19:00:00 18.2 13 Nordeste 24 Nordeste 0 -- -- 63
2020-07-18 18:00:00 19.8 9 Norte 23 Nordeste 0 -- -- 61
2020-07-18 17:00:00 19 16 Nordeste 28 Norte 0 -- -- 61
2020-07-18 16:00:00 19.5 18 Nordeste 27 Nordeste 0 -- -- 61
2020-07-18 15:00:00 19.1 12 Nordeste 21 Nordeste 0 -- -- 61
2020-07-18 14:00:00 20.4 3 Nordeste 9 Norte 0 -- -- 58
2020-07-18 13:00:00 19 6 Nordeste 13 Nordeste 0 -- -- 63
2020-07-18 12:00:00 17.9 9 Nordeste 15 Nordeste 0 -- -- 65
2020-07-18 11:00:00 17.5 8 Nordeste 14 Nordeste 0 -- -- 65
2020-07-18 10:00:00 19.3 6 Nordeste 14 Nordeste 0 -- -- 63
2020-07-18 09:00:00 17.1 11 Nordeste 22 Nordeste 0 -- -- 67
2020-07-18 08:00:00 17.9 18 Este 25 Nordeste 0 -- -- 68
2020-07-18 07:00:00 15.7 14 Nordeste 27 Nordeste 0 -- -- 74
2020-07-18 06:00:00 15.3 24 Nordeste 32 Nordeste 0 -- -- 74
2020-07-18 05:00:00 16.2 20 Nordeste 31 Nordeste 0 -- -- 70
2020-07-18 04:00:00 16 24 Nordeste 34 Nordeste 0 -- -- 70
2020-07-18 03:00:00 16.1 25 Nordeste 41 Nordeste 0 -- -- 65
2020-07-18 02:00:00 17.8 24 Nordeste 40 Nordeste 0 -- -- 61
2020-07-18 01:00:00 18.5 32 Nordeste 42 Nordeste 0 -- -- 59
2020-07-18 00:00:00 17.5 21 Nordeste 30 Nordeste 0 -- -- 63
2020-07-17 23:00:00 18.4 16 Nordeste 38 Nordeste 0 -- -- 66
2020-07-17 22:00:00 16.6 26 Nordeste 40 Nordeste 0 -- -- 67
2020-07-17 21:00:00 17.4 31 Nordeste 42 Nordeste 0 -- -- 63
2020-07-17 20:00:00 18 34 Nordeste 42 Nordeste 0 -- -- 62
2020-07-17 19:00:00 18.4 36 Nordeste 47 Nordeste 0 -- -- 60
2020-07-17 18:00:00 18.3 43 Nordeste 51 Nordeste 0 -- -- 60
2020-07-17 17:00:00 18.7 42 Nordeste 64 Nordeste 0 -- -- 60
2020-07-17 16:00:00 18.4 45 Nordeste 60 Nordeste 0 -- -- 59
2020-07-17 15:00:00 18.6 49 Nordeste 60 Nordeste 0 -- -- 59
2020-07-17 14:00:00 18.6 46 Nordeste 57 Nordeste 0 -- -- 60
2020-07-17 13:00:00 18 50 Nordeste 58 Nordeste 0 -- -- 60
2020-07-17 12:00:00 18.3 45 Nordeste 55 Nordeste 0 -- -- 61
2020-07-17 11:00:00 17.7 43 Nordeste 49 Nordeste 0 -- -- 63
2020-07-17 10:00:00 17.7 36 Nordeste 50 Nordeste 0 -- -- 64
2020-07-17 09:00:00 17.1 36 Nordeste 53 Nordeste 0 -- -- 67
2020-07-17 08:00:00 16.4 30 Nordeste 58 Nordeste 0 -- -- 71
2020-07-17 07:00:00 15.8 30 Nordeste 50 Nordeste 0 -- -- 74
2020-07-17 06:00:00 15.8 36 Nordeste 78 Nordeste 0 -- -- 74
2020-07-17 05:00:00 15.6 57 Nordeste 83 Nordeste 0 -- -- 76
2020-07-17 04:00:00 15.7 63 Nordeste 78 Nordeste 0 -- -- 76
2020-07-17 03:00:00 15.4 59 Nordeste 70 Nordeste 0 -- -- 75
2020-07-17 02:00:00 15.7 42 Nordeste 65 Nordeste 0 -- -- 75
2020-07-17 01:00:00 15.8 40 Nordeste 69 Nordeste 0 -- -- 74
2020-07-17 00:00:00 15.8 57 Nordeste 72 Nordeste 0 -- -- 73
2020-07-16 23:00:00 16.1 50 Nordeste 67 Nordeste 0 -- -- 72
2020-07-16 22:00:00 16.4 51 Nordeste 78 Nordeste 0 -- -- 70
2020-07-16 21:00:00 16.9 65 Nordeste 87 Nordeste 0 -- -- 68
2020-07-16 20:00:00 17.2 64 Nordeste 85 Nordeste 0 -- -- 66
2020-07-16 19:00:00 17.4 64 Nordeste 83 Nordeste 0 -- -- 65
2020-07-16 18:00:00 17.9 64 Nordeste 78 Nordeste 0 -- -- 64
2020-07-16 17:00:00 17.9 60 Nordeste 81 Nordeste 0 -- -- 64
2020-07-16 16:00:00 17.9 59 Nordeste 75 Nordeste 0 -- -- 63
2020-07-16 15:00:00 17.5 62 Nordeste 77 Nordeste 0 -- -- 62
2020-07-16 14:00:00 17.9 60 Nordeste 71 Nordeste 0 -- -- 61
2020-07-16 13:00:00 17.9 54 Nordeste 70 Nordeste 0 -- -- 59
2020-07-16 12:00:00 17.9 49 Nordeste 81 Nordeste 0 -- -- 61
2020-07-16 11:00:00 17.2 59 Nordeste 77 Nordeste 0 -- -- 63
2020-07-16 10:00:00 16.7 53 Nordeste 67 Nordeste 0 -- -- 63
2020-07-16 09:00:00 16.4 52 Nordeste 70 Nordeste 0 -- -- 65
2020-07-16 08:00:00 16.1 35 Nordeste 64 Nordeste 0 -- -- 66
2020-07-16 07:00:00 15.6 46 Nordeste 61 Nordeste 0 -- -- 68
2020-07-16 06:00:00 15.9 38 Nordeste 56 Nordeste 0 -- -- 66
2020-07-16 05:00:00 15.6 40 Nordeste 55 Nordeste 0 -- -- 66
2020-07-16 04:00:00 15.8 34 Nordeste 70 Nordeste 0 -- -- 66
2020-07-16 03:00:00 16 38 Nordeste 69 Nordeste 0 -- -- 66
2020-07-16 02:00:00 16 48 Nordeste 70 Nordeste 0 -- -- 69
2020-07-16 01:00:00 15.9 55 Nordeste 74 Nordeste 0 -- -- 70
2020-07-16 00:00:00 15.6 55 Nordeste 76 Nordeste 0 -- -- 70
2020-07-15 23:00:00 15.7 54 Nordeste 70 Nordeste 0 -- -- 70
2020-07-15 22:00:00 16 52 Nordeste 69 Nordeste 0 -- -- 68
2020-07-15 21:00:00 16.4 49 Nordeste 70 Nordeste 0 -- -- 66
2020-07-15 20:00:00 16.5 52 Nordeste 76 Nordeste 0 -- -- 65
2020-07-15 19:00:00 16.8 61 Nordeste 74 Nordeste 0 -- -- 64
2020-07-15 18:00:00 16.7 54 Nordeste 62 Nordeste 0 -- -- 67
2020-07-15 17:00:00 17.1 49 Nordeste 61 Nordeste 0 -- -- 65
2020-07-15 16:00:00 17.1 45 Nordeste 61 Nordeste 0 -- -- 65
2020-07-15 15:00:00 17.1 49 Nordeste 66 Nordeste 0 -- -- 65
2020-07-15 14:00:00 17.1 49 Nordeste 64 Nordeste 0 -- -- 66
2020-07-15 13:00:00 16.9 41 Nordeste 66 Nordeste 0 -- -- 67
2020-07-15 12:00:00 17 47 Nordeste 62 Nordeste 0 -- -- 66
2020-07-15 11:00:00 17.2 45 Nordeste 61 Nordeste 0 -- -- 68
2020-07-15 10:00:00 16.1 40 Nordeste 53 Nordeste 0 -- -- 73
2020-07-15 09:00:00 15.8 37 Nordeste 54 Nordeste 0 -- -- 72
2020-07-15 08:00:00 15.6 41 Nordeste 56 Nordeste 0 -- -- 74
2020-07-15 07:00:00 15.7 46 Nordeste 66 Nordeste 0 -- -- 74
2020-07-15 06:00:00 15.6 46 Nordeste 65 Nordeste 0 -- -- 77
2020-07-15 05:00:00 15.5 50 Nordeste 64 Nordeste 0.1 -- -- 81
2020-07-15 04:00:00 14.8 48 Nordeste 64 Nordeste 0 -- -- 84
2020-07-15 03:00:00 14.7 47 Nordeste 57 Nordeste 0 -- -- 84
2020-07-15 02:00:00 14.8 43 Nordeste 60 Nordeste 0.1 -- -- 84
2020-07-15 01:00:00 15.4 50 Nordeste 66 Nordeste 0.3 -- -- 84
2020-07-15 00:00:00 15.3 51 Nordeste 59 Nordeste 0.1 -- -- 84
2020-07-14 23:00:00 15.3 43 Nordeste 53 Nordeste 0 -- -- 84
2020-07-14 22:00:00 15.4 46 Nordeste 53 Nordeste 0 -- -- 83
2020-07-14 21:00:00 15.5 40 Nordeste 48 Nordeste 0 -- -- 80
2020-07-14 20:00:00 16.2 36 Nordeste 42 Nordeste 0 -- -- 77
2020-07-14 19:00:00 16.7 33 Nordeste 38 Nordeste 0 -- -- 76
2020-07-14 18:00:00 17 28 Nordeste 35 Norte 0 -- -- 76
2020-07-14 17:00:00 17.2 30 Norte 36 Nordeste 0 -- -- 76
2020-07-14 16:00:00 17.5 28 Nordeste 32 Nordeste 0 -- -- 75
2020-07-14 15:00:00 17.6 24 Nordeste 31 Norte 0 -- -- 76
2020-07-14 14:00:00 17.3 27 Nordeste 30 Nordeste 0 -- -- 75
2020-07-14 13:00:00 17.1 26 Nordeste 33 Nordeste 0 -- -- 75
2020-07-14 12:00:00 17.2 27 Nordeste 34 Nordeste 0 -- -- 76
2020-07-14 11:00:00 16.4 31 Nordeste 36 Nordeste 0 -- -- 80
2020-07-14 10:00:00 15.6 27 Nordeste 32 Nordeste 0 -- -- 83
2020-07-14 09:00:00 15.1 27 Nordeste 37 Nordeste 0 -- -- 84
2020-07-14 08:00:00 14.4 29 Nordeste 37 Nordeste 0 -- -- 84
2020-07-14 07:00:00 14.5 28 Nordeste 38 Nordeste 0 -- -- 84
2020-07-14 06:00:00 15 33 Nordeste 41 Nordeste 0 -- -- 83
2020-07-14 05:00:00 15.3 33 Nordeste 49 Nordeste 0 -- -- 81
2020-07-14 04:00:00 15.7 37 Nordeste 53 Nordeste 0 -- -- 81
2020-07-14 03:00:00 15.3 36 Nordeste 50 Nordeste 0 -- -- 81
2020-07-14 02:00:00 15 35 Nordeste 46 Nordeste 0 -- -- 81
2020-07-14 01:00:00 15.3 36 Nordeste 54 Nordeste 0 -- -- 79
2020-07-14 00:00:00 16.2 45 Nordeste 62 Nordeste 0 -- -- 77